Time;durP1;ratioP1;P1;durP2;ratioP2;P2;SDS_P1;SDS_P2;PMS_P1;PMS_P2;Temp;Humidity;BMP_temperature;BMP_pressure;BME280_temperature;BME280_humidity;BME280_pressure;Samples;Min_cycle;Max_cycle;Signal;HPM_P1;HPM_P2
2020/12/04 07:51:11;;;;;;;42.83;24.30;;;0.00;99.90;;;;;;5084111;28;20248;-71
2020/12/04 07:53:37;;;;;;;43.50;24.70;;;0.10;99.90;;;;;;5071223;28;20193;-70
2020/12/04 07:56:04;;;;;;;38.73;16.03;;;0.10;99.90;;;;;;5071224;28;20185;-70
2020/12/04 07:58:30;;;;;;;30.27;16.23;;;0.10;99.90;;;;;;5089120;22;20231;-67
2020/12/04 08:00:58;;;;;;;41.57;22.13;;;0.20;99.90;;;;;;5066642;28;20224;-67
2020/12/04 08:03:23;;;;;;;26.73;15.43;;;0.20;99.90;;;;;;5062016;28;20177;-68
2020/12/04 08:05:49;;;;;;;42.00;21.27;;;0.20;99.90;;;;;;5048843;28;20336;-67
2020/12/04 08:08:20;;;;;;;46.43;26.67;;;0.20;99.90;;;;;;5061394;28;20172;-68
2020/12/04 08:10:46;;;;;;;37.23;19.10;;;0.30;99.90;;;;;;5053476;28;20277;-68
2020/12/04 08:13:12;;;;;;;30.60;19.27;;;0.30;99.90;;;;;;5046598;28;20320;-67
2020/12/04 08:15:41;;;;;;;27.33;15.97;;;0.30;99.90;;;;;;5047833;28;20162;-68
2020/12/04 08:18:10;;;;;;;33.63;19.30;;;0.30;99.90;;;;;;5047505;28;20180;-69
2020/12/04 08:20:35;;;;;;;17.97;11.43;;;0.30;99.90;;;;;;5046441;28;20190;-68
2020/12/04 08:23:01;;;;;;;49.30;26.00;;;0.30;99.90;;;;;;5046915;28;20646;-68
2020/12/04 08:25:29;;;;;;;28.85;15.65;;;0.30;99.90;;;;;;5046754;28;20189;-69
2020/12/04 08:27:55;;;;;;;38.77;22.73;;;0.30;99.90;;;;;;5048329;28;20638;-69
2020/12/04 08:30:26;;;;;;;34.50;19.23;;;0.30;99.90;;;;;;5048623;28;20280;-69
2020/12/04 08:32:56;;;;;;;30.57;14.73;;;0.30;99.90;;;;;;5047385;28;20213;-70
2020/12/04 08:35:24;;;;;;;32.33;18.67;;;0.40;99.90;;;;;;5047519;28;20208;-70
2020/12/04 08:37:50;;;;;;;32.10;16.57;;;0.30;99.90;;;;;;5029924;28;20201;-69
2020/12/04 08:40:29;;;;;;;22.90;13.97;;;0.40;99.90;;;;;;5043797;28;20217;-69
2020/12/04 08:43:07;;;;;;;32.07;17.83;;;0.40;99.90;;;;;;5036225;28;20223;-69
2020/12/04 08:45:33;;;;;;;29.87;16.67;;;0.40;99.90;;;;;;5046943;28;20293;-69
2020/12/04 08:48:25;;;;;;;34.93;19.13;;;0.40;99.90;;;;;;5046037;28;20204;-70
2020/12/04 08:50:53;;;;;;;34.60;19.27;;;0.50;99.90;;;;;;5033705;28;20257;-68
2020/12/04 08:53:20;;;;;;;25.83;13.30;;;0.50;99.90;;;;;;5040640;28;20188;-68
2020/12/04 08:55:51;;;;;;;35.20;20.40;;;0.50;99.90;;;;;;5046562;28;20392;-68
2020/12/04 08:58:18;;;;;;;35.50;19.17;;;0.50;99.90;;;;;;5037406;28;20181;-68
2020/12/04 09:00:45;;;;;;;30.07;15.97;;;0.60;99.90;;;;;;5034309;28;20398;-68
2020/12/04 09:03:10;;;;;;;31.97;18.03;;;0.60;99.90;;;;;;5031658;28;20198;-70
2020/12/04 09:05:37;;;;;;;34.60;17.60;;;0.60;99.90;;;;;;5029331;28;20214;-69
2020/12/04 09:08:03;;;;;;;20.20;11.90;;;0.60;99.90;;;;;;5033003;28;20182;-69
2020/12/04 09:10:28;;;;;;;30.03;17.57;;;0.60;99.90;;;;;;5015025;28;20628;-69
2020/12/04 09:12:56;;;;;;;21.90;11.17;;;0.60;99.90;;;;;;5032677;28;20577;-69
2020/12/04 09:15:22;;;;;;;34.93;17.90;;;0.60;99.90;;;;;;5029551;28;20179;-69
2020/12/04 09:17:49;;;;;;;33.73;19.10;;;0.70;99.90;;;;;;5019922;28;20650;-69
2020/12/04 09:20:14;;;;;;;38.03;20.90;;;0.70;99.90;;;;;;5032350;28;20305;-69
2020/12/04 09:22:40;;;;;;;39.40;23.60;;;0.80;99.90;;;;;;5023817;28;20241;-70
2020/12/04 09:25:09;;;;;;;30.77;16.73;;;0.80;99.90;;;;;;5028029;28;20210;-69
2020/12/04 09:27:35;;;;;;;35.33;16.87;;;0.80;99.90;;;;;;5023211;28;20603;-69
2020/12/04 09:30:01;;;;;;;35.57;17.10;;;0.80;99.90;;;;;;5031354;28;20281;-68
2020/12/04 09:32:27;;;;;;;25.70;16.23;;;0.80;99.90;;;;;;5032776;28;20560;-69
2020/12/04 09:34:53;;;;;;;27.60;16.10;;;0.90;99.90;;;;;;5027121;28;20182;-69
2020/12/04 09:37:21;;;;;;;51.47;28.63;;;0.90;99.90;;;;;;5025050;28;20190;-70
2020/12/04 09:39:52;;;;;;;37.23;19.20;;;0.90;99.90;;;;;;5042186;28;20657;-70
2020/12/04 09:42:19;;;;;;;39.60;22.60;;;1.00;99.90;;;;;;5031993;28;20321;-70
2020/12/04 09:44:45;;;;;;;41.60;21.97;;;0.90;99.90;;;;;;5031868;28;20213;-70
2020/12/04 09:47:13;;;;;;;39.07;20.90;;;1.00;99.90;;;;;;5031028;28;20231;-69
2020/12/04 09:49:39;;;;;;;36.80;21.07;;;1.00;99.90;;;;;;5031512;28;20301;-68
2020/12/04 09:52:05;;;;;;;30.43;16.07;;;1.00;99.90;;;;;;5032329;28;20174;-69
2020/12/04 09:54:35;;;;;;;52.33;29.03;;;1.00;99.90;;;;;;5032643;28;20182;-69
2020/12/04 09:57:01;;;;;;;51.03;27.50;;;1.10;99.90;;;;;;5030249;28;20255;-69
2020/12/04 09:59:26;;;;;;;51.80;28.33;;;1.10;99.90;;;;;;5018162;28;20248;-69
2020/12/04 10:01:53;;;;;;;33.07;18.60;;;1.10;99.90;;;;;;5025360;28;20181;-69
2020/12/04 15:00:58;;;;;;;45.27;27.10;;;2.60;99.90;;;;;;5086898;27;20277;-68
2020/12/04 15:03:24;;;;;;;41.73;21.83;;;2.60;99.90;;;;;;5088134;28;20196;-68
2020/12/04 15:05:49;;;;;;;47.07;27.90;;;2.60;99.90;;;;;;5080396;28;20226;-69
2020/12/04 15:08:15;;;;;;;45.97;27.73;;;2.60;99.90;;;;;;5066040;28;20302;-68
2020/12/04 15:10:41;;;;;;;37.47;20.43;;;2.60;99.90;;;;;;5067743;28;20185;-72
2020/12/04 15:13:07;;;;;;;45.63;29.70;;;2.60;99.90;;;;;;5090596;22;20244;-68
2020/12/04 15:15:32;;;;;;;49.63;30.27;;;2.70;99.90;;;;;;5075574;28;20367;-65
2020/12/04 15:17:58;;;;;;;45.03;24.77;;;2.70;99.90;;;;;;5073294;28;20279;-65
2020/12/04 15:20:24;;;;;;;31.77;17.07;;;2.70;99.90;;;;;;5071705;28;20201;-66
2020/12/04 15:22:49;;;;;;;26.00;12.53;;;2.70;99.90;;;;;;5041707;28;20221;-65
2020/12/04 15:25:15;;;;;;;45.63;30.73;;;2.70;99.90;;;;;;5032597;28;20201;-65
2020/12/04 15:27:40;;;;;;;27.53;14.87;;;2.70;99.90;;;;;;5048689;28;20355;-65
2020/12/04 15:30:06;;;;;;;43.13;27.07;;;2.80;99.90;;;;;;5043000;28;20641;-65
2020/12/04 15:32:32;;;;;;;35.30;22.27;;;2.80;99.90;;;;;;5044621;28;20193;-66
2020/12/04 15:34:57;;;;;;;43.07;27.47;;;2.80;99.90;;;;;;5029168;28;20704;-66
2020/12/04 15:37:23;;;;;;;31.47;21.00;;;2.70;99.90;;;;;;5047040;28;20226;-67
2020/12/04 15:39:48;;;;;;;37.97;21.63;;;2.70;99.90;;;;;;5047185;28;20233;-65
2020/12/04 15:42:14;;;;;;;43.03;25.77;;;2.70;99.90;;;;;;5046438;28;20198;-66
2020/12/04 15:44:40;;;;;;;41.10;26.80;;;2.70;99.90;;;;;;5040540;28;20174;-66
2020/12/04 15:47:06;;;;;;;29.37;17.33;;;2.70;99.90;;;;;;5041812;28;20178;-65
2020/12/04 15:49:32;;;;;;;37.37;21.60;;;2.70;99.90;;;;;;5040779;28;20209;-64
2020/12/04 15:51:58;;;;;;;47.23;26.63;;;2.70;99.90;;;;;;5040533;28;20447;-65
2020/12/04 15:54:24;;;;;;;40.83;25.30;;;2.70;99.90;;;;;;5046563;28;20269;-65
2020/12/04 15:56:51;;;;;;;44.33;27.60;;;2.70;99.90;;;;;;5042848;28;20463;-65
2020/12/04 15:59:17;;;;;;;35.23;23.57;;;2.70;99.90;;;;;;5046373;28;20197;-64
2020/12/04 16:01:43;;;;;;;39.50;23.23;;;2.70;99.90;;;;;;5044772;28;20592;-71
2020/12/04 16:04:09;;;;;;;30.03;17.00;;;2.70;99.90;;;;;;5041775;28;20281;-63
2020/12/04 16:06:36;;;;;;;41.00;23.30;;;2.70;99.90;;;;;;5043526;28;20257;-62
2020/12/04 16:09:03;;;;;;;43.63;24.40;;;2.70;99.90;;;;;;5044520;28;20178;-62
2020/12/04 16:11:29;;;;;;;42.20;24.13;;;2.70;99.90;;;;;;5032373;28;20179;-62
2020/12/04 16:13:54;;;;;;;44.30;27.23;;;2.70;99.90;;;;;;5029526;28;20258;-62
2020/12/04 16:16:22;;;;;;;43.07;25.70;;;2.70;99.90;;;;;;5030269;28;20182;-62
2020/12/04 16:18:48;;;;;;;43.43;26.80;;;2.70;99.90;;;;;;5028384;28;20241;-62
2020/12/04 16:21:13;;;;;;;43.17;28.27;;;2.70;99.90;;;;;;5027598;28;20305;-61
2020/12/04 16:23:39;;;;;;;42.83;26.30;;;2.70;99.90;;;;;;5030097;28;20411;-62
2020/12/04 16:26:04;;;;;;;42.40;28.03;;;2.60;99.90;;;;;;5030038;28;20253;-62
2020/12/04 16:28:30;;;;;;;43.27;26.87;;;2.60;99.90;;;;;;5029206;28;20220;-62
2020/12/04 16:30:56;;;;;;;38.33;24.80;;;2.60;99.90;;;;;;5029858;28;20174;-63
2020/12/04 16:33:22;;;;;;;37.40;22.37;;;2.60;99.90;;;;;;5030083;28;20615;-62
2020/12/04 16:35:48;;;;;;;36.80;21.60;;;2.60;99.90;;;;;;5029226;28;20183;-63
2020/12/04 16:38:13;;;;;;;40.07;24.70;;;2.70;99.90;;;;;;5029741;28;20182;-63
2020/12/04 16:40:38;;;;;;;37.30;24.40;;;2.60;99.90;;;;;;5030078;28;20206;-63
2020/12/04 16:43:04;;;;;;;38.13;25.10;;;2.60;99.90;;;;;;5030691;28;20182;-61
2020/12/04 16:45:30;;;;;;;44.17;27.27;;;2.60;99.90;;;;;;5029743;28;20581;-62
2020/12/04 16:47:55;;;;;;;36.73;21.87;;;2.60;99.90;;;;;;5028237;28;20183;-63
2020/12/04 16:50:21;;;;;;;29.87;16.70;;;2.50;99.90;;;;;;5029724;28;20191;-62
2020/12/04 16:52:46;;;;;;;41.20;23.37;;;2.60;99.90;;;;;;5030368;28;20198;-63
2020/12/04 16:55:12;;;;;;;29.50;18.00;;;2.60;99.90;;;;;;5029987;28;20186;-62
2020/12/04 16:57:38;;;;;;;37.50;22.47;;;2.60;99.90;;;;;;5029393;28;20181;-62
2020/12/04 17:00:05;;;;;;;38.43;24.00;;;2.60;99.90;;;;;;5030621;28;20202;-62
2020/12/04 17:02:31;;;;;;;30.50;18.97;;;2.60;99.90;;;;;;5029399;28;20666;-63
2020/12/04 17:04:56;;;;;;;38.77;25.63;;;2.60;99.90;;;;;;5029434;28;20201;-63
2020/12/04 17:07:22;;;;;;;39.60;26.53;;;2.60;99.90;;;;;;5029259;28;20190;-63
2020/12/04 17:09:48;;;;;;;41.93;27.43;;;2.60;99.90;;;;;;5030501;28;20179;-63
2020/12/04 17:12:13;;;;;;;42.67;24.93;;;2.60;99.90;;;;;;5029988;28;20218;-60
2020/12/04 17:14:39;;;;;;;37.70;22.27;;;2.60;99.90;;;;;;5028003;28;20178;-63
2020/12/04 17:17:05;;;;;;;33.13;20.50;;;2.60;99.90;;;;;;5028100;28;20185;-62
2020/12/04 17:19:31;;;;;;;25.23;13.40;;;2.60;99.90;;;;;;5030076;28;20301;-62
2020/12/04 17:21:56;;;;;;;23.47;14.87;;;2.60;99.90;;;;;;5027373;28;20657;-62
2020/12/04 17:24:22;;;;;;;35.70;21.50;;;2.60;99.90;;;;;;5029482;28;20170;-63
2020/12/04 17:26:47;;;;;;;41.90;24.53;;;2.60;99.90;;;;;;5029745;28;20213;-63
2020/12/04 17:29:13;;;;;;;27.23;17.57;;;2.60;99.90;;;;;;5029234;28;20190;-63
2020/12/04 17:31:38;;;;;;;35.50;20.83;;;2.60;99.90;;;;;;5028264;28;20179;-63
2020/12/04 17:34:04;;;;;;;23.97;11.87;;;2.60;99.90;;;;;;5029308;28;20229;-63
2020/12/04 17:36:29;;;;;;;31.03;19.67;;;2.60;99.90;;;;;;5029442;28;20178;-63
2020/12/04 17:38:54;;;;;;;30.70;16.77;;;2.70;99.90;;;;;;5028564;28;20202;-64
2020/12/04 17:41:21;;;;;;;29.57;18.57;;;2.70;99.90;;;;;;5028743;28;20536;-62
2020/12/04 17:43:47;;;;;;;31.73;18.63;;;2.70;99.90;;;;;;5028665;28;20190;-64
2020/12/04 17:46:12;;;;;;;30.67;18.37;;;2.70;99.90;;;;;;5029227;28;20304;-64
2020/12/04 17:48:38;;;;;;;31.83;18.67;;;2.70;99.90;;;;;;5030434;28;20178;-63
2020/12/04 17:51:04;;;;;;;36.67;22.97;;;2.70;99.90;;;;;;5027609;28;20190;-64
2020/12/04 17:53:30;;;;;;;34.97;22.77;;;2.70;99.90;;;;;;5029545;28;20206;-63
2020/12/04 17:55:56;;;;;;;24.60;16.10;;;2.60;99.90;;;;;;5026591;28;20189;-63
2020/12/04 17:58:21;;;;;;;40.63;24.63;;;2.60;99.90;;;;;;5026888;28;20225;-64
2020/12/04 18:00:47;;;;;;;47.87;28.10;;;2.70;99.90;;;;;;5028054;28;20207;-64
2020/12/04 18:03:12;;;;;;;28.70;18.33;;;2.70;99.90;;;;;;5027652;28;20275;-64
2020/12/04 18:05:38;;;;;;;41.93;25.03;;;2.70;99.90;;;;;;5027094;28;20182;-62
2020/12/04 18:08:04;;;;;;;29.13;16.00;;;2.70;99.90;;;;;;5027203;28;20563;-61
2020/12/04 18:10:30;;;;;;;40.80;24.33;;;2.80;99.90;;;;;;5028958;28;20170;-62
2020/12/04 18:12:56;;;;;;;28.67;15.93;;;2.80;99.90;;;;;;5027593;28;20309;-63
2020/12/04 18:15:22;;;;;;;31.00;20.40;;;2.80;99.90;;;;;;5027560;28;20981;-61
2020/12/04 18:17:47;;;;;;;40.37;22.07;;;2.80;99.90;;;;;;5028463;28;20653;-66
2020/12/04 18:20:14;;;;;;;23.87;12.80;;;2.80;99.90;;;;;;5028175;28;20475;-69
2020/12/04 18:22:39;;;;;;;41.50;26.43;;;2.80;99.90;;;;;;5027723;28;20700;-70
2020/12/04 18:25:05;;;;;;;48.87;30.17;;;2.80;99.90;;;;;;5028035;28;20221;-70
2020/12/04 18:27:30;;;;;;;25.70;15.10;;;2.80;99.90;;;;;;5027708;28;20591;-70
2020/12/04 18:29:56;;;;;;;38.37;24.00;;;2.90;99.90;;;;;;5028353;28;20270;-71
2020/12/04 18:32:21;;;;;;;44.20;27.73;;;2.90;99.90;;;;;;5028355;28;20681;-71
2020/12/04 18:34:47;;;;;;;36.43;22.90;;;2.90;99.90;;;;;;5041116;28;20171;-70
2020/12/04 18:37:12;;;;;;;46.47;30.33;;;2.90;99.90;;;;;;5045136;28;20182;-70
2020/12/04 18:39:38;;;;;;;35.83;21.10;;;2.90;99.90;;;;;;5049653;28;20206;-71
2020/12/04 18:42:03;;;;;;;45.77;27.20;;;2.90;99.90;;;;;;5053865;28;20197;-71
2020/12/04 18:44:30;;;;;;;42.47;25.67;;;2.90;99.90;;;;;;5048371;28;20240;-70
2020/12/04 18:46:55;;;;;;;43.97;26.60;;;2.90;99.90;;;;;;5029433;28;20182;-64
2020/12/04 18:49:23;;;;;;;38.83;26.03;;;2.90;99.90;;;;;;5024539;28;20205;-62
2020/12/04 18:51:50;;;;;;;31.93;20.47;;;2.90;99.90;;;;;;5026519;28;20186;-62
2020/12/04 18:54:16;;;;;;;38.70;25.13;;;2.80;99.90;;;;;;5028746;28;20350;-63
2020/12/04 18:56:41;;;;;;;30.57;15.63;;;2.90;99.90;;;;;;5026501;28;20553;-62
2020/12/04 18:59:07;;;;;;;23.03;14.20;;;2.90;99.90;;;;;;5027363;28;20250;-63
2020/12/04 19:01:32;;;;;;;31.90;19.77;;;2.90;99.90;;;;;;5027111;28;20537;-63
2020/12/04 19:03:58;;;;;;;35.23;23.83;;;2.90;99.90;;;;;;5029168;28;20201;-62
2020/12/04 19:06:27;;;;;;;24.37;15.03;;;2.90;99.90;;;;;;5026849;28;20178;-63
2020/12/04 19:08:52;;;;;;;41.53;23.07;;;2.90;99.90;;;;;;5028563;28;21757;-65
2020/12/04 19:11:18;;;;;;;36.83;23.07;;;2.90;99.90;;;;;;5028398;28;20186;-64
2020/12/04 19:13:44;;;;;;;40.87;22.97;;;2.90;99.90;;;;;;5027569;28;20595;-63
2020/12/04 19:16:10;;;;;;;40.77;27.87;;;2.90;99.90;;;;;;5029161;28;20189;-62
2020/12/04 19:18:36;;;;;;;47.10;29.13;;;2.90;99.90;;;;;;5028754;28;20170;-63
2020/12/04 19:21:02;;;;;;;47.20;31.73;;;2.90;99.90;;;;;;5009532;28;20202;-63
2020/12/04 19:23:28;;;;;;;42.57;26.83;;;2.90;99.90;;;;;;5028333;28;20737;-62
2020/12/04 19:25:53;;;;;;;34.27;21.27;;;2.90;99.90;;;;;;5027685;28;20190;-63
2020/12/04 19:28:19;;;;;;;38.90;24.50;;;2.90;99.90;;;;;;5028094;28;20221;-61
2020/12/04 19:30:44;;;;;;;46.63;29.90;;;2.90;99.90;;;;;;5027622;28;20933;-63
2020/12/04 19:33:11;;;;;;;35.90;21.37;;;2.90;99.90;;;;;;5007952;28;20486;-63
2020/12/04 19:35:37;;;;;;;33.57;18.37;;;2.90;99.90;;;;;;5025053;28;20322;-64
2020/12/04 19:38:03;;;;;;;38.00;22.70;;;3.00;99.90;;;;;;5027447;28;20293;-63
2020/12/04 19:40:29;;;;;;;44.17;27.17;;;3.00;99.90;;;;;;5029351;28;20229;-62
2020/12/04 19:42:54;;;;;;;45.27;27.13;;;3.00;99.90;;;;;;5026861;28;20206;-63
2020/12/04 19:45:20;;;;;;;43.40;27.10;;;3.00;99.90;;;;;;5025503;28;20174;-62
2020/12/04 19:47:47;;;;;;;42.10;26.67;;;3.00;99.90;;;;;;5031322;28;20250;-64
2020/12/04 19:50:14;;;;;;;36.27;23.03;;;3.00;99.90;;;;;;5031295;28;20593;-63
2020/12/04 19:52:40;;;;;;;39.10;24.17;;;3.00;99.90;;;;;;5031110;28;20202;-64
2020/12/04 19:55:07;;;;;;;44.83;28.33;;;3.00;99.90;;;;;;5031085;28;20177;-68
2020/12/04 19:57:33;;;;;;;43.00;29.67;;;3.10;99.90;;;;;;5030840;28;20375;-71
2020/12/04 20:00:05;;;;;;;38.17;24.40;;;3.10;99.90;;;;;;5032043;28;20204;-69
2020/12/04 20:02:40;;;;;;;31.60;21.03;;;3.10;99.90;;;;;;5031126;28;20198;-71
2020/12/04 20:05:08;;;;;;;35.97;20.93;;;3.10;99.90;;;;;;5029507;28;20189;-67
2020/12/04 20:07:34;;;;;;;33.83;21.50;;;3.10;99.90;;;;;;5031527;28;20544;-67
2020/12/04 20:09:59;;;;;;;41.60;28.13;;;3.20;99.90;;;;;;5030590;28;20178;-67
2020/12/04 20:12:25;;;;;;;47.93;31.53;;;3.10;99.90;;;;;;5031436;28;20599;-67
2020/12/04 20:14:50;;;;;;;45.37;31.60;;;3.10;99.90;;;;;;5031373;28;20650;-67
2020/12/04 20:17:16;;;;;;;52.33;32.50;;;3.10;99.90;;;;;;5028862;28;20261;-66
2020/12/04 20:19:41;;;;;;;43.60;25.80;;;3.10;99.90;;;;;;5031710;28;20202;-66
2020/12/04 20:22:07;;;;;;;49.97;31.97;;;3.20;99.90;;;;;;5028247;28;20325;-67
2020/12/04 20:24:32;;;;;;;48.27;30.03;;;3.20;99.90;;;;;;5028682;28;20549;-66
2020/12/04 20:26:59;;;;;;;44.83;24.13;;;3.20;99.90;;;;;;5029919;28;20202;-66
2020/12/04 20:29:26;;;;;;;50.87;32.80;;;3.20;99.90;;;;;;5030553;28;20186;-68
2020/12/04 20:31:55;;;;;;;44.03;27.47;;;3.20;99.90;;;;;;5034053;28;20190;-68
2020/12/04 20:34:21;;;;;;;40.43;24.30;;;3.20;99.90;;;;;;5030661;28;20174;-66
2020/12/04 20:36:47;;;;;;;40.50;24.07;;;3.30;99.90;;;;;;5031030;28;20185;-66
2020/12/04 20:39:13;;;;;;;47.07;27.30;;;3.30;99.90;;;;;;5029593;28;21610;-66
2020/12/04 20:41:39;;;;;;;46.23;28.70;;;3.30;99.90;;;;;;5029964;28;20460;-67
2020/12/04 20:44:08;;;;;;;46.37;27.67;;;3.30;99.90;;;;;;5026990;28;20210;-67
2020/12/04 20:46:34;;;;;;;50.70;31.40;;;3.30;99.90;;;;;;5029961;28;20170;-65
2020/12/04 20:49:25;;;;;;;44.00;27.93;;;3.30;99.90;;;;;;5031086;28;20495;-66
2020/12/04 20:51:52;;;;;;;26.27;17.40;;;3.30;99.90;;;;;;5030345;28;20171;-66
2020/12/04 20:54:18;;;;;;;40.23;25.83;;;3.30;99.90;;;;;;5013848;28;20232;-66
2020/12/04 20:56:43;;;;;;;50.47;31.03;;;3.30;99.90;;;;;;5029120;28;20218;-65
2020/12/04 20:59:09;;;;;;;44.20;25.90;;;3.20;99.90;;;;;;5030683;28;20198;-66
2020/12/04 21:01:34;;;;;;;23.73;16.07;;;3.30;99.90;;;;;;5030249;28;20171;-67
2020/12/04 21:04:00;;;;;;;34.07;22.87;;;3.30;99.90;;;;;;5030665;28;20753;-65
2020/12/04 21:06:26;;;;;;;48.93;29.10;;;3.20;99.90;;;;;;5030251;28;20178;-65
2020/12/04 21:08:51;;;;;;;42.30;24.00;;;3.20;99.90;;;;;;5030581;28;20246;-65
2020/12/04 21:11:17;;;;;;;43.77;26.30;;;3.20;99.90;;;;;;5028744;28;20258;-65
2020/12/04 21:13:43;;;;;;;42.57;26.17;;;3.10;99.90;;;;;;5081859;22;20225;-66
2020/12/04 21:16:08;;;;;;;48.60;31.30;;;3.10;99.90;;;;;;5083327;28;20222;-67
2020/12/04 21:18:34;;;;;;;51.07;32.13;;;3.10;99.90;;;;;;5080007;28;20187;-66
2020/12/04 21:20:59;;;;;;;51.17;32.03;;;3.00;99.90;;;;;;5080258;28;20216;-67
2020/12/04 21:23:25;;;;;;;37.17;22.83;;;3.00;99.90;;;;;;5080611;28;20195;-67
2020/12/04 21:25:50;;;;;;;48.53;29.47;;;3.00;99.90;;;;;;5080840;28;20242;-67
2020/12/04 21:28:15;;;;;;;57.20;34.90;;;3.00;99.90;;;;;;5080863;28;20658;-67
2020/12/04 21:30:41;;;;;;;52.27;31.10;;;3.00;99.90;;;;;;5080160;28;20537;-66
2020/12/04 21:33:06;;;;;;;47.90;28.00;;;3.10;99.90;;;;;;5080633;28;20192;-66
2020/12/04 21:35:33;;;;;;;45.77;26.43;;;3.10;99.90;;;;;;5079502;28;20204;-66
2020/12/04 21:37:59;;;;;;;45.33;28.77;;;3.10;99.90;;;;;;5080449;28;20666;-66
2020/12/04 21:40:24;;;;;;;44.57;26.60;;;3.10;99.90;;;;;;5079149;28;20200;-66
2020/12/04 21:42:51;;;;;;;54.07;33.80;;;3.20;99.90;;;;;;5081164;28;20283;-66
2020/12/04 21:45:16;;;;;;;37.17;21.77;;;3.20;99.90;;;;;;5081176;28;20181;-67
2020/12/04 21:47:42;;;;;;;39.47;25.37;;;3.20;99.90;;;;;;5079843;28;20775;-66
2020/12/04 21:50:08;;;;;;;42.80;25.97;;;3.20;99.90;;;;;;5089058;28;20274;-67
2020/12/04 21:52:33;;;;;;;53.13;33.40;;;3.20;99.90;;;;;;5091142;28;20650;-67
2020/12/04 21:54:59;;;;;;;49.30;31.10;;;3.20;99.90;;;;;;5089339;28;20181;-61
2020/12/04 21:57:24;;;;;;;48.50;30.30;;;3.20;99.90;;;;;;5079162;28;20211;-61
2020/12/04 21:59:50;;;;;;;39.30;26.07;;;3.20;99.90;;;;;;5079404;28;20590;-62
2020/12/04 22:02:15;;;;;;;45.00;27.77;;;3.10;99.90;;;;;;5079447;28;20211;-61
2020/12/04 22:04:41;;;;;;;40.93;20.40;;;3.10;99.90;;;;;;5078867;28;20195;-60
2020/12/04 22:07:06;;;;;;;56.60;37.43;;;3.10;99.90;;;;;;5079074;28;20164;-60
2020/12/04 22:09:32;;;;;;;39.93;25.20;;;3.10;99.90;;;;;;5079780;28;20172;-66
2020/12/04 22:11:57;;;;;;;47.03;29.80;;;3.10;99.90;;;;;;5078843;28;20198;-60
2020/12/04 22:14:23;;;;;;;46.60;26.60;;;3.10;99.90;;;;;;5080957;28;20625;-60
2020/12/04 22:16:49;;;;;;;57.83;38.27;;;3.00;99.90;;;;;;5079224;28;20172;-61
2020/12/04 22:19:14;;;;;;;62.87;40.50;;;3.00;99.90;;;;;;5080026;28;20692;-60
2020/12/04 22:21:40;;;;;;;59.20;37.03;;;3.00;99.90;;;;;;5080617;28;20183;-68
2020/12/04 22:24:06;;;;;;;52.60;33.70;;;2.90;99.90;;;;;;5085431;28;20196;-74
2020/12/04 22:26:31;;;;;;;61.40;37.10;;;2.90;99.90;;;;;;5081599;28;20167;-75
2020/12/04 22:28:57;;;;;;;56.77;35.67;;;2.90;99.90;;;;;;5083444;28;20612;-73
2020/12/04 22:31:24;;;;;;;48.60;30.07;;;2.80;99.90;;;;;;5078526;28;20187;-65
2020/12/04 22:33:52;;;;;;;58.47;38.10;;;2.80;99.90;;;;;;5079570;28;20233;-66
2020/12/04 22:36:28;;;;;;;64.17;39.47;;;2.80;99.90;;;;;;5079713;28;20200;-66
2020/12/04 22:38:55;;;;;;;47.97;30.07;;;2.80;99.90;;;;;;5081830;28;20172;-67
2020/12/04 22:41:21;;;;;;;61.23;38.83;;;2.70;99.90;;;;;;5078952;28;20187;-65
2020/12/04 22:43:47;;;;;;;56.67;35.70;;;2.70;99.90;;;;;;5080985;28;20192;-62
2020/12/04 22:46:14;;;;;;;55.73;31.93;;;2.70;99.90;;;;;;5079016;28;20273;-62
2020/12/04 22:48:40;;;;;;;48.63;26.93;;;2.70;99.90;;;;;;5079095;28;20168;-62
2020/12/04 22:51:06;;;;;;;53.53;32.10;;;2.70;99.90;;;;;;5079027;28;21989;-60
2020/12/04 22:53:31;;;;;;;47.73;30.47;;;2.70;99.90;;;;;;5082418;28;20234;-62
2020/12/04 23:02:44;;;;;;;66.60;39.40;;;2.80;99.90;;;;;;5008292;28;20763;-63
2020/12/04 23:05:10;;;;;;;55.23;32.63;;;2.90;99.90;;;;;;5018219;28;20277;-60
2020/12/04 23:07:36;;;;;;;55.67;31.87;;;2.90;99.90;;;;;;5020990;28;20320;-60
2020/12/04 23:10:05;;;;;;;49.80;29.37;;;3.00;99.90;;;;;;5019500;28;20634;-61
2020/12/04 23:12:31;;;;;;;62.93;38.23;;;3.00;99.90;;;;;;5002357;28;20230;-59
2020/12/04 23:14:57;;;;;;;61.53;37.77;;;3.00;99.90;;;;;;5019508;28;20221;-61
2020/12/04 23:17:22;;;;;;;49.70;30.37;;;3.00;99.90;;;;;;5019582;28;20209;-61
2020/12/04 23:19:48;;;;;;;61.37;38.80;;;3.00;99.90;;;;;;5022556;28;20599;-61
2020/12/04 23:22:14;;;;;;;64.87;38.77;;;3.10;99.90;;;;;;5032001;28;20630;-61
2020/12/04 23:24:40;;;;;;;59.80;35.53;;;3.10;99.90;;;;;;5003412;28;20230;-61
2020/12/04 23:27:05;;;;;;;41.00;23.87;;;3.10;99.90;;;;;;5004817;28;20217;-61
2020/12/04 23:29:31;;;;;;;45.03;28.40;;;3.10;99.90;;;;;;5006891;28;21526;-62
2020/12/04 23:31:56;;;;;;;58.90;37.90;;;3.10;99.90;;;;;;5005823;28;20275;-62
2020/12/04 23:34:21;;;;;;;67.17;39.33;;;3.20;99.90;;;;;;5005201;28;20241;-61
2020/12/04 23:36:47;;;;;;;72.20;44.20;;;3.20;99.90;;;;;;5006635;28;20238;-62
2020/12/04 23:39:12;;;;;;;53.37;28.97;;;3.20;99.90;;;;;;5014024;28;20222;-61
2020/12/04 23:41:38;;;;;;;67.97;39.87;;;3.20;99.90;;;;;;5023651;28;20300;-61
2020/12/04 23:44:03;;;;;;;72.03;35.20;;;3.30;99.90;;;;;;5023037;28;20237;-63
2020/12/04 23:46:29;;;;;;;45.83;29.27;;;3.20;99.90;;;;;;5023068;28;20256;-62
2020/12/04 23:48:55;;;;;;;47.67;26.83;;;3.30;99.90;;;;;;5021396;28;20287;-60
2020/12/04 23:51:21;;;;;;;47.63;28.93;;;3.20;99.90;;;;;;5026474;28;20601;-60
